sensor_id;sensor_type;location;lat;lon;timestamp;pressure;altitude;pressure_sealevel;temperature;humidity
80248;BME280;69560;52.206;21.018;2024-02-15T00:01:52;100757.27;;;6.98;48.15
80248;BME280;69560;52.206;21.018;2024-02-15T00:04:18;100754.61;;;6.96;48.03
80248;BME280;69560;52.206;21.018;2024-02-15T00:06:46;100752.77;;;6.96;48.11
80248;BME280;69560;52.206;21.018;2024-02-15T00:09:13;100752.75;;;6.93;48.10
80248;BME280;69560;52.206;21.018;2024-02-15T00:11:40;100750.98;;;6.87;48.10
80248;BME280;69560;52.206;21.018;2024-02-15T00:14:06;100750.38;;;6.86;48.26
80248;BME280;69560;52.206;21.018;2024-02-15T00:16:34;100752.30;;;6.88;48.37
80248;BME280;69560;52.206;21.018;2024-02-15T00:19:02;100754.46;;;6.91;48.53
80248;BME280;69560;52.206;21.018;2024-02-15T00:21:28;100752.35;;;6.95;48.56
80248;BME280;69560;52.206;21.018;2024-02-15T00:23:55;100756.55;;;6.99;48.57
80248;BME280;69560;52.206;21.018;2024-02-15T00:26:23;100754.33;;;7.03;48.53
80248;BME280;69560;52.206;21.018;2024-02-15T00:28:49;100757.82;;;7.05;48.55
80248;BME280;69560;52.206;21.018;2024-02-15T00:31:16;100755.67;;;7.07;48.56
80248;BME280;69560;52.206;21.018;2024-02-15T00:33:43;100751.34;;;7.03;48.37
80248;BME280;69560;52.206;21.018;2024-02-15T00:36:10;100753.48;;;7.00;48.39
80248;BME280;69560;52.206;21.018;2024-02-15T00:38:37;100753.34;;;6.98;48.52
80248;BME280;69560;52.206;21.018;2024-02-15T00:41:05;100757.79;;;6.99;48.55
80248;BME280;69560;52.206;21.018;2024-02-15T00:43:34;100759.71;;;7.00;48.64
80248;BME280;69560;52.206;21.018;2024-02-15T00:46:02;100750.98;;;6.98;48.60
80248;BME280;69560;52.206;21.018;2024-02-15T00:48:28;100761.41;;;7.00;48.62
80248;BME280;69560;52.206;21.018;2024-02-15T00:50:56;100752.94;;;7.02;48.65
80248;BME280;69560;52.206;21.018;2024-02-15T00:53:23;100760.98;;;7.00;48.59
80248;BME280;69560;52.206;21.018;2024-02-15T00:55:49;100763.33;;;6.98;48.52
80248;BME280;69560;52.206;21.018;2024-02-15T00:58:17;100761.35;;;6.93;48.61
80248;BME280;69560;52.206;21.018;2024-02-15T01:00:44;100755.81;;;6.88;48.55
80248;BME280;69560;52.206;21.018;2024-02-15T01:03:10;100750.27;;;6.85;48.63
80248;BME280;69560;52.206;21.018;2024-02-15T01:05:37;100749.14;;;6.86;48.83
80248;BME280;69560;52.206;21.018;2024-02-15T01:08:03;100748.30;;;6.85;48.84
80248;BME280;69560;52.206;21.018;2024-02-15T01:10:30;100750.86;;;6.84;48.87
80248;BME280;69560;52.206;21.018;2024-02-15T01:12:57;100748.71;;;6.85;48.95
80248;BME280;69560;52.206;21.018;2024-02-15T01:15:23;100748.75;;;6.88;49.03
80248;BME280;69560;52.206;21.018;2024-02-15T01:17:50;100744.19;;;6.90;48.99
80248;BME280;69560;52.206;21.018;2024-02-15T01:20:16;100746.91;;;6.91;49.04
80248;BME280;69560;52.206;21.018;2024-02-15T01:22:43;100747.56;;;6.86;48.84
80248;BME280;69560;52.206;21.018;2024-02-15T01:25:10;100751.79;;;6.82;48.95
80248;BME280;69560;52.206;21.018;2024-02-15T01:27:38;100747.02;;;6.77;48.84
80248;BME280;69560;52.206;21.018;2024-02-15T01:30:05;100743.95;;;6.73;48.99
80248;BME280;69560;52.206;21.018;2024-02-15T01:32:32;100742.63;;;6.70;49.05
80248;BME280;69560;52.206;21.018;2024-02-15T01:34:58;100740.13;;;6.69;49.17
80248;BME280;69560;52.206;21.018;2024-02-15T01:37:25;100737.43;;;6.70;49.33
80248;BME280;69560;52.206;21.018;2024-02-15T01:39:52;100740.48;;;6.71;49.38
80248;BME280;69560;52.206;21.018;2024-02-15T01:42:18;100738.48;;;6.74;49.24
80248;BME280;69560;52.206;21.018;2024-02-15T01:44:45;100737.95;;;6.74;49.32
80248;BME280;69560;52.206;21.018;2024-02-15T01:47:14;100731.93;;;6.73;49.33
80248;BME280;69560;52.206;21.018;2024-02-15T01:49:42;100734.64;;;6.75;49.38
80248;BME280;69560;52.206;21.018;2024-02-15T01:52:09;100732.02;;;6.75;49.36
80248;BME280;69560;52.206;21.018;2024-02-15T01:54:36;100726.98;;;6.72;49.36
80248;BME280;69560;52.206;21.018;2024-02-15T01:57:05;100724.97;;;6.72;49.48
80248;BME280;69560;52.206;21.018;2024-02-15T01:59:32;100727.65;;;6.73;49.57
80248;BME280;69560;52.206;21.018;2024-02-15T02:01:59;100725.86;;;6.76;49.48
80248;BME280;69560;52.206;21.018;2024-02-15T02:04:26;100718.64;;;6.79;49.56
80248;BME280;69560;52.206;21.018;2024-02-15T02:06:52;100719.09;;;6.82;49.54
80248;BME280;69560;52.206;21.018;2024-02-15T02:09:25;100723.49;;;6.81;49.46
80248;BME280;69560;52.206;21.018;2024-02-15T02:11:52;100718.11;;;6.83;49.53
80248;BME280;69560;52.206;21.018;2024-02-15T02:14:19;100716.71;;;6.83;49.63
80248;BME280;69560;52.206;21.018;2024-02-15T02:16:46;100711.73;;;6.83;49.54
80248;BME280;69560;52.206;21.018;2024-02-15T02:19:13;100711.27;;;6.83;49.58
80248;BME280;69560;52.206;21.018;2024-02-15T02:21:40;100705.15;;;6.84;49.66
80248;BME280;69560;52.206;21.018;2024-02-15T02:24:14;100710.70;;;6.85;49.56
80248;BME280;69560;52.206;21.018;2024-02-15T02:26:44;100706.82;;;6.82;49.60
80248;BME280;69560;52.206;21.018;2024-02-15T02:29:10;100700.20;;;6.78;49.60
80248;BME280;69560;52.206;21.018;2024-02-15T02:31:37;100710.84;;;6.84;49.67
80248;BME280;69560;52.206;21.018;2024-02-15T02:34:04;100717.02;;;6.87;49.69
80248;BME280;69560;52.206;21.018;2024-02-15T02:36:30;100721.17;;;6.86;49.69
80248;BME280;69560;52.206;21.018;2024-02-15T02:38:57;100720.79;;;6.86;49.75
80248;BME280;69560;52.206;21.018;2024-02-15T02:41:27;100722.92;;;6.88;49.77
80248;BME280;69560;52.206;21.018;2024-02-15T02:43:58;100725.58;;;6.90;49.74
80248;BME280;69560;52.206;21.018;2024-02-15T02:46:25;100722.30;;;6.87;49.72
80248;BME280;69560;52.206;21.018;2024-02-15T02:48:52;100719.91;;;6.86;49.78
80248;BME280;69560;52.206;21.018;2024-02-15T02:51:18;100716.10;;;6.87;49.89
80248;BME280;69560;52.206;21.018;2024-02-15T02:53:45;100712.94;;;6.87;49.79
80248;BME280;69560;52.206;21.018;2024-02-15T02:56:11;100708.77;;;6.83;49.66
80248;BME280;69560;52.206;21.018;2024-02-15T02:58:39;100708.17;;;6.84;49.78
80248;BME280;69560;52.206;21.018;2024-02-15T03:01:09;100708.21;;;6.83;49.76
80248;BME280;69560;52.206;21.018;2024-02-15T03:03:35;100710.83;;;6.80;49.69
80248;BME280;69560;52.206;21.018;2024-02-15T03:06:02;100710.23;;;6.75;49.81
80248;BME280;69560;52.206;21.018;2024-02-15T03:08:28;100710.02;;;6.72;49.82
80248;BME280;69560;52.206;21.018;2024-02-15T03:10:55;100714.20;;;6.72;50.08
80248;BME280;69560;52.206;21.018;2024-02-15T03:13:22;100715.59;;;6.72;49.90
80248;BME280;69560;52.206;21.018;2024-02-15T03:15:49;100714.11;;;6.68;50.00
80248;BME280;69560;52.206;21.018;2024-02-15T03:18:17;100715.48;;;6.65;50.04
80248;BME280;69560;52.206;21.018;2024-02-15T03:20:44;100715.88;;;6.67;50.24
80248;BME280;69560;52.206;21.018;2024-02-15T03:23:10;100710.77;;;6.65;50.14
80248;BME280;69560;52.206;21.018;2024-02-15T03:25:37;100713.85;;;6.69;50.22
80248;BME280;69560;52.206;21.018;2024-02-15T03:28:04;100717.55;;;6.71;50.14
80248;BME280;69560;52.206;21.018;2024-02-15T03:30:32;100722.02;;;6.69;50.22
80248;BME280;69560;52.206;21.018;2024-02-15T03:33:00;100720.56;;;6.66;50.19
80248;BME280;69560;52.206;21.018;2024-02-15T03:35:27;100724.66;;;6.66;50.24
80248;BME280;69560;52.206;21.018;2024-02-15T03:37:57;100722.02;;;6.65;50.22
80248;BME280;69560;52.206;21.018;2024-02-15T03:40:25;100725.29;;;6.63;50.20
80248;BME280;69560;52.206;21.018;2024-02-15T03:42:56;100722.98;;;6.62;50.30
80248;BME280;69560;52.206;21.018;2024-02-15T03:45:22;100722.23;;;6.63;50.36
80248;BME280;69560;52.206;21.018;2024-02-15T03:47:54;100718.52;;;6.64;50.45
80248;BME280;69560;52.206;21.018;2024-02-15T03:50:24;100719.27;;;6.63;50.44
80248;BME280;69560;52.206;21.018;2024-02-15T03:52:50;100715.86;;;6.61;50.43
80248;BME280;69560;52.206;21.018;2024-02-15T03:55:17;100719.41;;;6.61;50.55
80248;BME280;69560;52.206;21.018;2024-02-15T03:57:44;100714.14;;;6.61;50.65
80248;BME280;69560;52.206;21.018;2024-02-15T04:00:12;100713.34;;;6.59;50.60
80248;BME280;69560;52.206;21.018;2024-02-15T04:02:47;100713.70;;;6.55;50.47
80248;BME280;69560;52.206;21.018;2024-02-15T04:05:17;100712.86;;;6.55;50.76
80248;BME280;69560;52.206;21.018;2024-02-15T04:07:44;100714.98;;;6.59;50.81
80248;BME280;69560;52.206;21.018;2024-02-15T04:10:11;100712.15;;;6.63;50.88
80248;BME280;69560;52.206;21.018;2024-02-15T04:12:38;100712.95;;;6.65;50.87
80248;BME280;69560;52.206;21.018;2024-02-15T04:15:08;100715.73;;;6.65;50.87
80248;BME280;69560;52.206;21.018;2024-02-15T04:17:38;100715.06;;;6.66;50.92
80248;BME280;69560;52.206;21.018;2024-02-15T04:20:05;100710.35;;;6.69;50.93
80248;BME280;69560;52.206;21.018;2024-02-15T04:22:33;100709.29;;;6.71;50.95
80248;BME280;69560;52.206;21.018;2024-02-15T04:25:08;100710.80;;;6.72;51.06
80248;BME280;69560;52.206;21.018;2024-02-15T04:27:36;100709.55;;;6.72;50.88
80248;BME280;69560;52.206;21.018;2024-02-15T04:30:03;100709.65;;;6.67;50.74
80248;BME280;69560;52.206;21.018;2024-02-15T04:32:30;100712.38;;;6.61;50.79
80248;BME280;69560;52.206;21.018;2024-02-15T04:35:02;100713.27;;;6.61;51.00
80248;BME280;69560;52.206;21.018;2024-02-15T04:37:30;100716.50;;;6.63;51.05
80248;BME280;69560;52.206;21.018;2024-02-15T04:39:58;100716.21;;;6.62;51.08
80248;BME280;69560;52.206;21.018;2024-02-15T04:42:32;100715.73;;;6.62;51.06
80248;BME280;69560;52.206;21.018;2024-02-15T04:45:01;100718.77;;;6.61;51.14
80248;BME280;69560;52.206;21.018;2024-02-15T04:47:28;100720.91;;;6.62;51.13
80248;BME280;69560;52.206;21.018;2024-02-15T04:49:56;100723.88;;;6.61;51.12
80248;BME280;69560;52.206;21.018;2024-02-15T04:52:22;100720.95;;;6.59;51.11
80248;BME280;69560;52.206;21.018;2024-02-15T04:54:50;100721.30;;;6.54;51.07
80248;BME280;69560;52.206;21.018;2024-02-15T04:57:16;100719.85;;;6.50;51.20
80248;BME280;69560;52.206;21.018;2024-02-15T04:59:44;100720.98;;;6.47;51.26
80248;BME280;69560;52.206;21.018;2024-02-15T05:02:14;100721.72;;;6.44;51.24
80248;BME280;69560;52.206;21.018;2024-02-15T05:04:40;100726.62;;;6.42;51.42
80248;BME280;69560;52.206;21.018;2024-02-15T05:07:09;100727.69;;;6.43;51.37
80248;BME280;69560;52.206;21.018;2024-02-15T05:09:36;100724.08;;;6.45;51.60
80248;BME280;69560;52.206;21.018;2024-02-15T05:12:03;100727.73;;;6.46;51.58
80248;BME280;69560;52.206;21.018;2024-02-15T05:14:31;100723.69;;;6.47;51.67
80248;BME280;69560;52.206;21.018;2024-02-15T05:16:57;100724.77;;;6.49;51.65
80248;BME280;69560;52.206;21.018;2024-02-15T05:19:25;100717.69;;;6.49;51.58
80248;BME280;69560;52.206;21.018;2024-02-15T05:21:52;100716.61;;;6.48;51.65
80248;BME280;69560;52.206;21.018;2024-02-15T05:24:20;100718.23;;;6.47;51.60
80248;BME280;69560;52.206;21.018;2024-02-15T05:26:47;100719.35;;;6.44;51.56
80248;BME280;69560;52.206;21.018;2024-02-15T05:29:15;100721.23;;;6.43;51.63
80248;BME280;69560;52.206;21.018;2024-02-15T05:31:41;100722.25;;;6.43;51.73
80248;BME280;69560;52.206;21.018;2024-02-15T05:34:10;100721.58;;;6.40;51.75
80248;BME280;69560;52.206;21.018;2024-02-15T05:36:40;100727.80;;;6.37;51.80
80248;BME280;69560;52.206;21.018;2024-02-15T05:39:07;100723.13;;;6.38;51.87
80248;BME280;69560;52.206;21.018;2024-02-15T05:41:35;100726.59;;;6.40;51.89
80248;BME280;69560;52.206;21.018;2024-02-15T05:44:01;100730.12;;;6.43;51.99
80248;BME280;69560;52.206;21.018;2024-02-15T05:46:31;100735.13;;;6.44;51.98
80248;BME280;69560;52.206;21.018;2024-02-15T05:48:57;100734.36;;;6.45;52.04
80248;BME280;69560;52.206;21.018;2024-02-15T05:51:24;100737.05;;;6.45;52.00
80248;BME280;69560;52.206;21.018;2024-02-15T05:53:51;100741.85;;;6.43;51.88
80248;BME280;69560;52.206;21.018;2024-02-15T05:56:19;100741.05;;;6.39;51.95
80248;BME280;69560;52.206;21.018;2024-02-15T05:58:47;100748.15;;;6.36;52.08
80248;BME280;69560;52.206;21.018;2024-02-15T06:01:13;100746.83;;;6.36;52.17
80248;BME280;69560;52.206;21.018;2024-02-15T06:03:40;100748.73;;;6.37;52.23
80248;BME280;69560;52.206;21.018;2024-02-15T06:06:08;100750.21;;;6.36;52.31
80248;BME280;69560;52.206;21.018;2024-02-15T06:08:35;100752.38;;;6.34;52.47
80248;BME280;69560;52.206;21.018;2024-02-15T06:11:03;100752.96;;;6.29;52.54
80248;BME280;69560;52.206;21.018;2024-02-15T06:13:31;100752.77;;;6.27;52.73
80248;BME280;69560;52.206;21.018;2024-02-15T06:15:58;100754.33;;;6.25;52.88
80248;BME280;69560;52.206;21.018;2024-02-15T06:18:26;100754.10;;;6.26;53.05
80248;BME280;69560;52.206;21.018;2024-02-15T06:20:55;100755.40;;;6.29;53.17
80248;BME280;69560;52.206;21.018;2024-02-15T06:23:28;100757.91;;;6.31;53.32
80248;BME280;69560;52.206;21.018;2024-02-15T06:25:56;100760.42;;;6.32;53.54
80248;BME280;69560;52.206;21.018;2024-02-15T06:28:24;100766.13;;;6.30;53.50
80248;BME280;69560;52.206;21.018;2024-02-15T06:31:10;100769.50;;;6.26;53.78
80248;BME280;69560;52.206;21.018;2024-02-15T06:33:56;100772.52;;;6.23;53.97
80248;BME280;69560;52.206;21.018;2024-02-15T06:36:49;100773.20;;;6.19;54.32
80248;BME280;69560;52.206;21.018;2024-02-15T06:39:35;100775.57;;;6.21;54.62
80248;BME280;69560;52.206;21.018;2024-02-15T06:42:04;100773.49;;;6.20;54.61
80248;BME280;69560;52.206;21.018;2024-02-15T06:44:33;100772.22;;;6.19;54.96
80248;BME280;69560;52.206;21.018;2024-02-15T06:47:00;100772.55;;;6.17;55.06
80248;BME280;69560;52.206;21.018;2024-02-15T06:49:27;100773.71;;;6.14;55.30
80248;BME280;69560;52.206;21.018;2024-02-15T06:51:53;100767.98;;;6.17;55.70
80248;BME280;69560;52.206;21.018;2024-02-15T06:54:21;100769.50;;;6.19;55.74
80248;BME280;69560;52.206;21.018;2024-02-15T06:56:49;100772.55;;;6.22;56.01
80248;BME280;69560;52.206;21.018;2024-02-15T06:59:15;100773.35;;;6.26;56.24
80248;BME280;69560;52.206;21.018;2024-02-15T07:01:43;100779.52;;;6.26;56.30
80248;BME280;69560;52.206;21.018;2024-02-15T07:04:10;100776.14;;;6.25;56.49
80248;BME280;69560;52.206;21.018;2024-02-15T07:06:39;100774.27;;;6.25;56.50
80248;BME280;69560;52.206;21.018;2024-02-15T07:09:06;100776.76;;;6.23;56.73
80248;BME280;69560;52.206;21.018;2024-02-15T07:11:33;100781.55;;;6.23;57.11
80248;BME280;69560;52.206;21.018;2024-02-15T07:14:01;100780.59;;;6.19;57.03
80248;BME280;69560;52.206;21.018;2024-02-15T07:16:28;100785.73;;;6.16;57.24
80248;BME280;69560;52.206;21.018;2024-02-15T07:18:56;100786.98;;;6.17;57.54
80248;BME280;69560;52.206;21.018;2024-02-15T07:21:22;100790.01;;;6.23;57.72
80248;BME280;69560;52.206;21.018;2024-02-15T07:23:53;100785.44;;;6.29;57.82
80248;BME280;69560;52.206;21.018;2024-02-15T07:26:23;100788.36;;;6.32;57.90
80248;BME280;69560;52.206;21.018;2024-02-15T07:28:52;100788.98;;;6.39;58.17
80248;BME280;69560;52.206;21.018;2024-02-15T07:31:20;100787.19;;;6.43;58.10
80248;BME280;69560;52.206;21.018;2024-02-15T07:33:48;100789.32;;;6.38;58.07
80248;BME280;69560;52.206;21.018;2024-02-15T07:36:22;100794.73;;;6.39;58.24
80248;BME280;69560;52.206;21.018;2024-02-15T07:38:49;100792.79;;;6.36;58.11
80248;BME280;69560;52.206;21.018;2024-02-15T07:41:17;100793.93;;;6.33;58.23
80248;BME280;69560;52.206;21.018;2024-02-15T07:43:46;100795.62;;;6.32;58.36
80248;BME280;69560;52.206;21.018;2024-02-15T07:46:14;100792.08;;;6.34;58.63
80248;BME280;69560;52.206;21.018;2024-02-15T07:48:40;100796.06;;;6.35;58.75
80248;BME280;69560;52.206;21.018;2024-02-15T07:51:22;100796.27;;;6.38;59.02
80248;BME280;69560;52.206;21.018;2024-02-15T07:53:49;100795.25;;;6.42;59.16
80248;BME280;69560;52.206;21.018;2024-02-15T07:56:17;100789.47;;;6.45;59.22
80248;BME280;69560;52.206;21.018;2024-02-15T07:58:46;100788.48;;;6.49;59.24
80248;BME280;69560;52.206;21.018;2024-02-15T08:01:14;100790.92;;;6.49;59.27
80248;BME280;69560;52.206;21.018;2024-02-15T08:03:41;100783.73;;;6.50;59.40
80248;BME280;69560;52.206;21.018;2024-02-15T08:06:15;100781.88;;;6.52;59.57
80248;BME280;69560;52.206;21.018;2024-02-15T08:08:44;100781.61;;;6.54;59.68
80248;BME280;69560;52.206;21.018;2024-02-15T08:11:14;100781.06;;;6.50;59.50
80248;BME280;69560;52.206;21.018;2024-02-15T08:13:45;100781.85;;;6.45;59.56
80248;BME280;69560;52.206;21.018;2024-02-15T08:16:12;100783.73;;;6.41;59.75
80248;BME280;69560;52.206;21.018;2024-02-15T08:18:38;100783.05;;;6.42;59.99
80248;BME280;69560;52.206;21.018;2024-02-15T08:21:05;100783.25;;;6.44;60.28
80248;BME280;69560;52.206;21.018;2024-02-15T08:23:32;100786.68;;;6.46;60.38
80248;BME280;69560;52.206;21.018;2024-02-15T08:25:58;100788.48;;;6.46;60.43
80248;BME280;69560;52.206;21.018;2024-02-15T08:28:25;100790.25;;;6.45;60.64
80248;BME280;69560;52.206;21.018;2024-02-15T08:30:52;100792.64;;;6.45;60.64
80248;BME280;69560;52.206;21.018;2024-02-15T08:33:19;100791.69;;;6.50;60.83
80248;BME280;69560;52.206;21.018;2024-02-15T08:35:45;100792.20;;;6.58;60.98
80248;BME280;69560;52.206;21.018;2024-02-15T08:38:12;100799.00;;;6.67;60.99
80248;BME280;69560;52.206;21.018;2024-02-15T08:40:38;100796.86;;;6.73;61.07
80248;BME280;69560;52.206;21.018;2024-02-15T08:43:05;100793.13;;;6.78;61.13
80248;BME280;69560;52.206;21.018;2024-02-15T08:45:32;100794.87;;;6.76;61.00
80248;BME280;69560;52.206;21.018;2024-02-15T08:47:59;100796.33;;;6.79;61.17
80248;BME280;69560;52.206;21.018;2024-02-15T08:50:25;100796.84;;;6.82;61.26
80248;BME280;69560;52.206;21.018;2024-02-15T08:52:52;100794.52;;;6.83;61.32
80248;BME280;69560;52.206;21.018;2024-02-15T08:55:18;100798.14;;;6.90;61.40
80248;BME280;69560;52.206;21.018;2024-02-15T08:57:50;100803.45;;;6.94;61.51
80248;BME280;69560;52.206;21.018;2024-02-15T09:00:16;100802.20;;;7.00;61.46
80248;BME280;69560;52.206;21.018;2024-02-15T09:02:44;100802.33;;;7.03;61.41
80248;BME280;69560;52.206;21.018;2024-02-15T09:05:11;100803.52;;;7.03;61.49
80248;BME280;69560;52.206;21.018;2024-02-15T09:07:44;100804.69;;;7.03;61.42
80248;BME280;69560;52.206;21.018;2024-02-15T09:10:14;100807.95;;;7.08;61.71
80248;BME280;69560;52.206;21.018;2024-02-15T09:12:44;100806.31;;;7.10;61.58
80248;BME280;69560;52.206;21.018;2024-02-15T09:15:13;100809.66;;;7.09;61.44
80248;BME280;69560;52.206;21.018;2024-02-15T09:17:43;100807.48;;;7.08;61.31
80248;BME280;69560;52.206;21.018;2024-02-15T09:20:13;100809.81;;;7.05;61.50
80248;BME280;69560;52.206;21.018;2024-02-15T09:22:49;100809.14;;;7.08;61.67
80248;BME280;69560;52.206;21.018;2024-02-15T09:25:16;100810.33;;;7.06;61.52
80248;BME280;69560;52.206;21.018;2024-02-15T09:27:44;100811.44;;;7.04;61.59
80248;BME280;69560;52.206;21.018;2024-02-15T09:30:12;100819.63;;;7.08;61.73
80248;BME280;69560;52.206;21.018;2024-02-15T09:32:39;100821.65;;;7.13;61.87
80248;BME280;69560;52.206;21.018;2024-02-15T09:35:07;100822.11;;;7.19;62.00
80248;BME280;69560;52.206;21.018;2024-02-15T09:37:42;100823.23;;;7.26;62.10
80248;BME280;69560;52.206;21.018;2024-02-15T09:40:11;100826.41;;;7.32;62.11
80248;BME280;69560;52.206;21.018;2024-02-15T09:42:38;100825.14;;;7.36;62.14
80248;BME280;69560;52.206;21.018;2024-02-15T09:45:08;100829.45;;;7.34;62.06
80248;BME280;69560;52.206;21.018;2024-02-15T09:47:39;100827.48;;;7.32;61.95
80248;BME280;69560;52.206;21.018;2024-02-15T09:50:14;100826.56;;;7.34;62.08
80248;BME280;69560;52.206;21.018;2024-02-15T09:52:46;100828.20;;;7.33;62.01
80248;BME280;69560;52.206;21.018;2024-02-15T09:55:14;100818.86;;;7.27;61.95
80248;BME280;69560;52.206;21.018;2024-02-15T09:57:46;100822.07;;;7.23;62.06
80248;BME280;69560;52.206;21.018;2024-02-15T10:00:14;100816.64;;;7.21;62.20
80248;BME280;69560;52.206;21.018;2024-02-15T10:02:43;100819.17;;;7.25;62.41
80248;BME280;69560;52.206;21.018;2024-02-15T10:05:11;100817.77;;;7.33;62.58
80248;BME280;69560;52.206;21.018;2024-02-15T10:07:42;100815.95;;;7.41;62.61
80248;BME280;69560;52.206;21.018;2024-02-15T10:10:18;100815.70;;;7.43;62.52
80248;BME280;69560;52.206;21.018;2024-02-15T10:12:47;100813.95;;;7.48;62.77
80248;BME280;69560;52.206;21.018;2024-02-15T10:15:40;100809.34;;;7.56;62.94
80248;BME280;69560;52.206;21.018;2024-02-15T10:18:08;100805.40;;;7.62;62.92
80248;BME280;69560;52.206;21.018;2024-02-15T10:20:37;100807.94;;;7.67;63.05
80248;BME280;69560;52.206;21.018;2024-02-15T10:25:35;100808.48;;;7.74;62.79
80248;BME280;69560;52.206;21.018;2024-02-15T10:28:07;100806.39;;;7.74;62.69
80248;BME280;69560;52.206;21.018;2024-02-15T10:30:35;100804.60;;;7.74;62.79
80248;BME280;69560;52.206;21.018;2024-02-15T10:33:03;100799.70;;;7.80;63.02
80248;BME280;69560;52.206;21.018;2024-02-15T10:35:31;100796.16;;;7.82;62.89
80248;BME280;69560;52.206;21.018;2024-02-15T10:38:10;100796.96;;;7.80;62.91
80248;BME280;69560;52.206;21.018;2024-02-15T10:40:40;100796.83;;;7.85;63.13
80248;BME280;69560;52.206;21.018;2024-02-15T10:43:10;100791.95;;;7.90;63.11
80248;BME280;69560;52.206;21.018;2024-02-15T10:45:40;100796.86;;;7.94;63.22
80248;BME280;69560;52.206;21.018;2024-02-15T10:48:10;100789.73;;;7.98;63.04
80248;BME280;69560;52.206;21.018;2024-02-15T10:50:39;100787.50;;;7.99;63.10
80248;BME280;69560;52.206;21.018;2024-02-15T10:55:53;100785.52;;;7.95;63.04
80248;BME280;69560;52.206;21.018;2024-02-15T10:58:26;100781.46;;;7.92;63.24
80248;BME280;69560;52.206;21.018;2024-02-15T11:00:59;100779.14;;;7.91;63.11
80248;BME280;69560;52.206;21.018;2024-02-15T11:03:32;100780.01;;;7.93;63.34
80248;BME280;69560;52.206;21.018;2024-02-15T11:06:02;100780.30;;;8.01;63.72
80248;BME280;69560;52.206;21.018;2024-02-15T11:08:29;100779.27;;;8.07;63.75
80248;BME280;69560;52.206;21.018;2024-02-15T11:10:56;100784.12;;;8.10;63.71
80248;BME280;69560;52.206;21.018;2024-02-15T11:13:25;100783.77;;;8.15;63.67
80248;BME280;69560;52.206;21.018;2024-02-15T11:15:53;100782.36;;;8.16;63.61
80248;BME280;69560;52.206;21.018;2024-02-15T11:18:43;100787.20;;;8.16;63.54
80248;BME280;69560;52.206;21.018;2024-02-15T11:21:26;100779.09;;;8.21;63.71
80248;BME280;69560;52.206;21.018;2024-02-15T11:24:25;100778.25;;;8.27;63.98
80248;BME280;69560;52.206;21.018;2024-02-15T11:35:11;100762.06;;;8.58;63.99
80248;BME280;69560;52.206;21.018;2024-02-15T11:40:29;100758.02;;;8.73;63.99
80248;BME280;69560;52.206;21.018;2024-02-15T11:46:17;100750.35;;;8.80;63.93
80248;BME280;69560;52.206;21.018;2024-02-15T11:48:47;100748.88;;;8.88;64.08
80248;BME280;69560;52.206;21.018;2024-02-15T11:51:34;100754.32;;;9.01;64.06
80248;BME280;69560;52.206;21.018;2024-02-15T11:54:09;100752.77;;;9.14;64.17
80248;BME280;69560;52.206;21.018;2024-02-15T11:59:10;100758.78;;;9.34;64.11
80248;BME280;69560;52.206;21.018;2024-02-15T12:01:45;100759.61;;;9.40;63.96
80248;BME280;69560;52.206;21.018;2024-02-15T12:04:30;100758.41;;;9.44;63.89
80248;BME280;69560;52.206;21.018;2024-02-15T12:07:15;100758.66;;;9.47;63.62
80248;BME280;69560;52.206;21.018;2024-02-15T12:10:00;100757.38;;;9.44;63.38
80248;BME280;69560;52.206;21.018;2024-02-15T12:12:52;100758.02;;;9.47;63.53
80248;BME280;69560;52.206;21.018;2024-02-15T12:15:37;100752.98;;;9.49;63.56
80248;BME280;69560;52.206;21.018;2024-02-15T12:18:22;100748.78;;;9.53;63.44
80248;BME280;69560;52.206;21.018;2024-02-15T12:21:09;100740.78;;;9.54;63.51
80248;BME280;69560;52.206;21.018;2024-02-15T12:23:39;100740.02;;;9.55;63.42
80248;BME280;69560;52.206;21.018;2024-02-15T12:26:07;100740.40;;;9.57;63.59
80248;BME280;69560;52.206;21.018;2024-02-15T12:28:34;100748.02;;;9.56;63.36
80248;BME280;69560;52.206;21.018;2024-02-15T12:31:09;100751.88;;;9.55;63.46
80248;BME280;69560;52.206;21.018;2024-02-15T12:33:36;100744.99;;;9.58;63.55
80248;BME280;69560;52.206;21.018;2024-02-15T12:36:04;100747.70;;;9.66;63.71
80248;BME280;69560;52.206;21.018;2024-02-15T12:38:32;100751.89;;;9.71;63.71
80248;BME280;69560;52.206;21.018;2024-02-15T12:41:00;100742.98;;;9.75;63.75
80248;BME280;69560;52.206;21.018;2024-02-15T12:43:28;100745.41;;;9.79;63.68
80248;BME280;69560;52.206;21.018;2024-02-15T12:45:55;100740.23;;;9.81;63.66
80248;BME280;69560;52.206;21.018;2024-02-15T12:48:25;100743.02;;;9.79;63.45
80248;BME280;69560;52.206;21.018;2024-02-15T12:50:51;100737.30;;;9.78;63.56
80248;BME280;69560;52.206;21.018;2024-02-15T12:53:22;100741.36;;;9.82;63.60
80248;BME280;69560;52.206;21.018;2024-02-15T12:55:53;100742.98;;;9.80;63.44
80248;BME280;69560;52.206;21.018;2024-02-15T12:58:23;100743.88;;;9.81;63.62
80248;BME280;69560;52.206;21.018;2024-02-15T13:00:57;100744.58;;;9.81;63.65
80248;BME280;69560;52.206;21.018;2024-02-15T13:03:24;100747.83;;;9.81;63.63
80248;BME280;69560;52.206;21.018;2024-02-15T13:05:51;100747.35;;;9.78;63.55
80248;BME280;69560;52.206;21.018;2024-02-15T13:08:20;100744.14;;;9.76;63.50
80248;BME280;69560;52.206;21.018;2024-02-15T13:10:49;100742.95;;;9.80;63.66
80248;BME280;69560;52.206;21.018;2024-02-15T13:13:17;100734.20;;;9.86;63.82
80248;BME280;69560;52.206;21.018;2024-02-15T13:15:44;100735.67;;;9.93;63.92
80248;BME280;69560;52.206;21.018;2024-02-15T13:18:10;100734.55;;;10.01;64.02
80248;BME280;69560;52.206;21.018;2024-02-15T13:20:40;100733.52;;;10.10;63.89
80248;BME280;69560;52.206;21.018;2024-02-15T13:23:07;100729.42;;;10.16;63.70